Cedar City, Utah Weather observations

Data are for observation ending at time listed.
 Day   Time    Ave.   Ave.  Ave.  Vector   Max.   Stn.    Total    Solar   Ave.  
  of    of     Air    Rel.  Wind   Wind    Wind   Baro.  Precip.   Rad.    Soil  
Year   Day     Temp.  Hum.  Speed  Dir.    Gust   Pres.                    Temp. 
2017   (MST)    F      %     mph   deg.    mph     mb.     in.     W/m2     F   
------------------------------------------------------------------------------
  35   22:10   38.9    60    2.1   246      4.5   823.7    0.00       0    99999.0
  35   22:20   38.6    60    2.2   165      4.3   823.9    0.00       0    99999.0
  35   22:30   37.8    61    2.2   195      4.7   824.1    0.00       0    99999.0
  35   22:40   37.6    61    2.7   177      5.6   824.2    0.00       0    99999.0
  35   22:50   36.8    62    3.1   200      5.9   824.2    0.00       0    99999.0
  35   23:00   36.4    62    3.2   203      5.1   824.2    0.00       0    99999.0
  35   23:10   35.9    63    2.4   204      4.5   824.2    0.00       0    99999.0
  35   23:20   35.7    64    1.6   133      3.0   824.2    0.00       0    99999.0
  35   23:30   35.2    65    3.0   213      5.3   824.4    0.00       0    99999.0
  35   23:40   35.1    66    3.0   207      5.4   824.5    0.00       0    99999.0
  35   23:50   35.6    66    2.3   191      5.6   824.5    0.00       0    99999.0
  36    0:00   35.6    66    1.1   211      2.9   824.5    0.00       0    99999.0
  36    0:10   35.0    67    2.5   211      4.7   824.5    0.00       0    99999.0
  36    0:20   35.1    68    2.9   182      5.2   824.4    0.00       0    99999.0
  36    0:30   36.8    65    2.9   180      5.2   824.4    0.00       0    99999.0
  36    0:40   35.5    67    1.8   209      5.0   824.4    0.00       0    99999.0
  36    0:50   35.2    69    3.7   204      5.7   824.5    0.00       0    99999.0
  36    1:00   36.7    67    4.0   187      5.4   824.6    0.00       0    99999.0
  36    1:10   37.1    67    2.6   166      5.1   824.6    0.00       0    99999.0
  36    1:20   37.0    68    2.2   128      4.7   824.7    0.00       0    99999.0
  36    1:30   37.5    68    3.2   149      6.2   824.7    0.00       0    99999.0
  36    1:40   37.0    69    3.1   169      4.7   824.7    0.00       0    99999.0
  36    1:50   36.9    68    3.0   162      4.8   824.7    0.00       0    99999.0
  36    2:00   36.4    69    2.3   173      3.6   824.7    0.00       0    99999.0
  36    2:10   35.8    71    2.4   166      6.1   824.7    0.00       0    99999.0
  36    2:20   36.7    68    3.3   183      5.8   824.5    0.00       0    99999.0
  36    2:30   36.6    68    3.3   186      5.0   824.6    0.00       0    99999.0
  36    2:40   37.1    67    3.1   169      6.0   824.5    0.00       0    99999.0
  36    2:50   37.5    66    2.1   184      4.8   824.6    0.00       0    99999.0
  36    3:00   36.9    67    1.5   199      4.7   824.6    0.00       0    99999.0
  36    3:10   37.3    66    2.7   166      4.1   824.6    0.00       0    99999.0
  36    3:20   36.6    68    2.7   180      3.7   824.5    0.00       0    99999.0
  36    3:30   36.7    68    2.8   193      4.2   824.4    0.00       0    99999.0
  36    3:40   36.6    68    2.5   198      3.9   824.3    0.00       0    99999.0
  36    3:50   37.4    65    2.0   170      4.5   824.3    0.00       0    99999.0
  36    4:00   37.5    64    1.9   211      4.4   824.3    0.00       0    99999.0
  36    4:10   37.2    65    1.9   185      3.2   824.4    0.00       0    99999.0
  36    4:20   36.4    66    2.4   184      3.4   824.4    0.00       0    99999.0
  36    4:30   36.6    66    2.6   156      4.2   824.2    0.00       0    99999.0
  36    4:40   37.5    61    3.4   122      6.8   824.1    0.00       0    99999.0
  36    4:50   38.2    58    4.1   121      7.7   823.8    0.00       0    99999.0
  36    5:00   36.8    62    3.5   190      5.1   823.7    0.00       0    99999.0
  36    5:10   34.4    70    4.0   190      5.8   823.7    0.00       0    99999.0
  36    5:20   33.8    72    3.6   189      5.0   823.8    0.00       0    99999.0
  36    5:30   33.6    72    1.7   257      3.9   823.9    0.00       0    99999.0
  36    5:40   33.0    73    2.3   112      4.4   823.8    0.00       0    99999.0
  36    5:50   32.7    73    1.4   163      2.6   823.7    0.00       0    99999.0
  36    6:00   33.6    69    1.9   124      3.8   823.6    0.00       0    99999.0
  36    6:10   34.5    65    3.4   193      6.8   823.6    0.00       0    99999.0
  36    6:20   33.3    69    4.6   184      6.0   823.6    0.00       0    99999.0
  36    6:30   35.5    60    3.7   162      6.4   823.6    0.00       0    99999.0
  36    6:40   36.1    58    3.8   142      6.9   823.6    0.00       0    99999.0
  36    6:50   36.4    56    3.5   138      6.2   823.6    0.00       0    99999.0
  36    7:00   36.4    54    3.4   144      6.9   823.6    0.00       0    99999.0
  36    7:10   35.5    57    3.6   171      6.4   823.8    0.00       0    99999.0
  36    7:20   33.7    62    3.1   168      4.7   823.9    0.00       0    99999.0
  36    7:30   33.8    61    3.3   147      6.0   823.9    0.00       0    99999.0
  36    7:40   35.6    53    3.8   135      7.2   823.9    0.00       5    99999.0
  36    7:50   35.7    52    3.9   133      8.8   823.9    0.00       9    99999.0
  36    8:00   35.5    52    4.8   170      7.8   823.9    0.00      13    99999.0
  36    8:10   34.4    60    3.9   166      7.2   824.1    0.00      17    99999.0
  36    8:20   35.5    54    3.6   146      6.9   824.1    0.00      40    99999.0
  36    8:30   37.1    49    3.7   130      5.9   824.1    0.00     106    99999.0
  36    8:40   38.6    46    3.0   143      5.8   824.3    0.00     139    99999.0
  36    8:50   39.0    47    3.2   147      5.8   824.5    0.00     166    99999.0
  36    9:00   39.0    49    2.7   131      6.1   824.7    0.00     193    99999.0
  36    9:10   39.9    43    3.7   106      6.0   824.8    0.00     221    99999.0
  36    9:20   40.6    42    3.9   102      6.1   824.9    0.00     252    99999.0
  36    9:30   41.7    42    3.3   106      5.2   824.8    0.00     283    99999.0
  36    9:40   42.2    42    4.3   102      6.1   824.8    0.00     320    99999.0
  36    9:50   42.8    45    3.9    96      6.4   824.9    0.00     323    99999.0
  36   10:00   43.8    46    1.9   107      3.1   824.9    0.00     326    99999.0
  36   10:10   44.2    57    2.4   185      5.3   825.0    0.00     393    99999.0
  36   10:20   44.4    56    4.0   170      6.4   824.9    0.00     349    99999.0
  36   10:30   43.8    53    3.7   173      5.6   824.7    0.00     262    99999.0
  36   10:40   44.4    50    2.0   187      5.4   824.6    0.00     341    99999.0
  36   10:50   44.9    47    3.1   219      5.0   824.5    0.00     304    99999.0
  36   11:00   45.1    49    2.1   199      4.7   824.6    0.00     295    99999.0
  36   11:10   45.7    54    2.5   185      5.3   824.5    0.00     320    99999.0
  36   11:20   45.9    57    3.5   190      6.6   824.4    0.00     341    99999.0
  36   11:30   46.3    55    2.8   187      5.8   824.2    0.00     360    99999.0
  36   11:40   46.8    49    2.8   137      5.0   824.2    0.00     386    99999.0
  36   11:50   47.5    51    2.1   136      6.6   824.1    0.00     470    99999.0
  36   12:00   48.1    50    2.2   169      4.7   824.0    0.00     464    99999.0
  36   12:10   47.7    47    3.5   184      6.6   823.9    0.00     395    99999.0
  36   12:20   48.1    49    2.7   184      6.8   823.7    0.00     517    99999.0
  36   12:30   49.3    51    2.4   220      6.6   823.7    0.00     564    99999.0
  36   12:40   49.3    52    3.2   209      8.4   823.6    0.00     607    99999.0
  36   12:50   49.4    52    4.4   220      7.8   823.4    0.00     654    99999.0
  36   13:00   50.0    51    4.0   232      8.3   823.2    0.00     645    99999.0
  36   13:10   50.3    49    4.8   212     10.2   823.1    0.00     625    99999.0
  36   13:20   50.7    48    5.9   214     10.5   822.8    0.00     541    99999.0
  36   13:30   50.9    48    7.5   223     14.0   822.6    0.00     511    99999.0
  36   13:40   50.7    48    8.1   222     13.9   822.5    0.00     513    99999.0
  36   13:50   50.6    47    8.6   222     15.3   822.2    0.00     455    99999.0
  36   14:00   50.7    46    6.9   229     11.9   821.9    0.00     469    99999.0
  36   14:10   51.3    45    5.3   230     10.7   821.7    0.00     433    99999.0
  36   14:20   51.4    44    4.6   224      9.3   821.6    0.00     455    99999.0
  36   14:30   52.4    42    4.1   228      8.0   821.4    0.00     430    99999.0
  36   14:40   53.1    40    2.5   235      7.4   821.3    0.00     419    99999.0
  36   14:50   52.7    40    4.7   215      9.9   821.1    0.00     353    99999.0
  36   15:00   51.8    38    8.3   221     13.4   820.9    0.00     359    99999.0
  36   15:10   51.7    35    5.9   228     10.4   820.9    0.00     307    99999.0
  36   15:20   51.3    35    7.1   226     12.3   820.9    0.00     276    99999.0
  36   15:30   50.7    33    7.5   224     13.9   820.7    0.00     228    99999.0
  36   15:40   50.3    33    8.2   214     14.8   820.6    0.00     187    99999.0
  36   15:50   49.9    34    9.4   222     16.5   820.5    0.00     163    99999.0
  36   16:00   49.6    35    8.3   216     14.6   820.4    0.00     142    99999.0
  36   16:10   49.5    36    7.0   205     12.7   820.4    0.00     142    99999.0
  36   16:20   49.3    37    7.7   203     15.6   820.3    0.00     121    99999.0
  36   16:30   48.9    36    7.0   198     11.2   820.3    0.00      85    99999.0
  36   16:40   48.7    37    5.0   184      9.5   820.3    0.00      69    99999.0
  36   16:50   48.7    37    4.0   174      7.4   820.2    0.00      58    99999.0
  36   17:00   48.5    38    3.7   177      6.6   820.2    0.00      60    99999.0
  36   17:10   48.3    38    4.6   167      8.5   820.1    0.00      60    99999.0
  36   17:20   48.1    39    4.1   153      8.0   819.9    0.00      42    99999.0
  36   17:30   47.9    40    2.3   138      5.6   819.9    0.00      38    99999.0
  36   17:40   47.8    40    2.5   133      4.7   819.8    0.00      26    99999.0
  36   17:50   47.5    40    2.1   140      3.4   819.8    0.00      14    99999.0
  36   18:00   47.2    41    1.1   129      2.5   819.9    0.00       3    99999.0
  36   18:10   46.9    41    0.6   185      2.1   819.9    0.00       0    99999.0
  36   18:20   46.6    41    2.3   164      6.7   819.9    0.00       0    99999.0
  36   18:30   46.4    42    2.4   155      4.2   820.1    0.00       0    99999.0
  36   18:40   46.3    41    3.1   150      4.7   820.2    0.00       0    99999.0
  36   18:50   46.2    41    2.1   118      4.5   820.3    0.00       0    99999.0
  36   19:00   46.7    34    2.4   139      5.3   820.2    0.00       0    99999.0
  36   19:10   47.7    32    2.1   169      4.5   820.2    0.00       0    99999.0
  36   19:20   48.1    31    3.3   134      6.9   820.2    0.00       0    99999.0
  36   19:30   48.5    31    2.7   152      6.0   820.1    0.00       0    99999.0
  36   19:40   47.4    34    2.0   337      4.5   820.0    0.00       0    99999.0
  36   19:50   46.4    36    3.3   354      6.3   819.8    0.00       0    99999.0
  36   20:00   45.1    41    3.6   339      6.8   819.8    0.00       0    99999.0
  36   20:10   44.3    48    2.5   335      7.1   820.0    0.00       0    99999.0
  36   20:20   44.2    50    1.3    14      4.4   819.9    0.00       0    99999.0
  36   20:30   43.6    51    4.0    54      6.7   819.7    0.00       0    99999.0
  36   20:40   43.6    50    3.1    92      5.1   819.6    0.00       0    99999.0
  36   20:50   45.4    40    3.4   155      9.3   819.5    0.00       0    99999.0
  36   21:00   48.8    28    8.3   190     15.9   819.4    0.00       0    99999.0
  36   21:10   49.7    25   11.5   197     19.4   819.4    0.00       0    99999.0
  36   21:20   49.6    25   11.8   191     21.8   819.3    0.00       0    99999.0
  36   21:30   49.4    25   11.1   196     21.5   819.3    0.00       0    99999.0
  36   21:40   49.4    25   11.8   189     22.4   819.4    0.00       0    99999.0
  36   21:50   49.1    28   12.1   191     23.2   819.3    0.00       0    99999.0
  36   22:00   48.6    31   11.6   198     20.1   819.3    0.00       0    99999.0

Return to Cedar City, Utah graphs page.


Western Regional Climate Center,wrcc@dri.edu